Time;durP1;ratioP1;P1;durP2;ratioP2;P2;SDS_P1;SDS_P2;PMS_P1;PMS_P2;Temp;Humidity;BMP_temperature;BMP_pressure;BME280_temperature;BME280_humidity;BME280_pressure;Samples;Min_cycle;Max_cycle;Signal;HPM_P1;HPM_P2
2022/02/21 00:00:47;;;;;;;16.30;4.45;;;;;;;;;;5040589;28;20353;-84
2022/02/21 00:03:15;;;;;;;18.27;4.22;;;;;;;;;;5025255;28;20179;-83
2022/02/21 00:05:41;;;;;;;14.40;4.50;;;;;;;;;;5027000;28;20651;-85
2022/02/21 00:08:07;;;;;;;12.05;3.40;;;;;;;;;;5015180;28;20656;-83
2022/02/21 00:10:34;;;;;;;13.27;4.65;;;;;;;;;;5024986;28;20194;-83
2022/02/21 00:12:59;;;;;;;9.43;3.78;;;;;;;;;;5028931;28;20202;-85
2022/02/21 00:15:26;;;;;;;10.85;3.20;;;;;;;;;;5038355;28;20189;-84
2022/02/21 00:17:53;;;;;;;13.02;3.20;;;;;;;;;;5028907;28;20175;-88
2022/02/21 00:20:19;;;;;;;13.70;3.35;;;;;;;;;;5029902;28;20279;-87
2022/02/21 00:22:47;;;;;;;10.43;3.30;;;;;;;;;;5030404;28;20194;-91
2022/02/21 00:25:13;;;;;;;14.13;3.65;;;;;;;;;;5031211;28;20211;-88
2022/02/21 00:27:39;;;;;;;13.70;4.05;;;;;;;;;;5012444;28;20197;-87
2022/02/21 00:30:06;;;;;;;14.23;3.47;;;;;;;;;;5024392;28;20186;-87
2022/02/21 00:32:32;;;;;;;9.38;2.38;;;;;;;;;;5040013;28;20473;-84
2022/02/21 00:34:58;;;;;;;9.90;3.30;;;;;;;;;;5028872;28;20230;-87
2022/02/21 00:37:24;;;;;;;11.43;2.60;;;;;;;;;;5038287;28;20186;-88
2022/02/21 00:39:51;;;;;;;11.57;3.50;;;;;;;;;;5028823;28;20477;-86
2022/02/21 00:42:21;;;;;;;13.38;3.30;;;;;;;;;;5042547;28;20190;-90
2022/02/21 00:44:48;;;;;;;12.25;3.25;;;;;;;;;;5037833;28;20201;-90
2022/02/21 00:47:14;;;;;;;14.05;3.13;;;;;;;;;;5025620;28;20256;-88
2022/02/21 00:49:41;;;;;;;15.23;4.13;;;;;;;;;;5033901;28;20191;-89
2022/02/21 00:52:07;;;;;;;9.07;2.95;;;;;;;;;;5009151;28;20218;-87
2022/02/21 00:54:33;;;;;;;8.57;2.67;;;;;;;;;;5011119;28;20179;-87
2022/02/21 00:56:59;;;;;;;12.70;1.90;;;;;;;;;;5048314;28;20597;-86
2022/02/21 00:59:25;;;;;;;9.05;2.40;;;;;;;;;;5044223;28;20207;-85
2022/02/21 01:01:51;;;;;;;7.43;2.17;;;;;;;;;;5036140;28;20199;-86
2022/02/21 01:04:17;;;;;;;6.85;1.58;;;;;;;;;;5036081;28;20269;-86
2022/02/21 01:06:43;;;;;;;2.58;1.23;;;;;;;;;;5026853;28;20183;-83
2022/02/21 01:09:09;;;;;;;5.60;1.60;;;;;;;;;;5048238;28;20769;-85
2022/02/21 01:11:35;;;;;;;4.60;1.53;;;;;;;;;;5026160;28;20454;-86
2022/02/21 01:14:01;;;;;;;4.22;1.73;;;;;;;;;;5041346;28;20512;-85
2022/02/21 01:16:29;;;;;;;4.70;1.30;;;;;;;;;;5014327;28;20187;-86
2022/02/21 01:18:54;;;;;;;7.20;2.40;;;;;;;;;;5018835;28;20179;-84
2022/02/21 01:21:20;;;;;;;9.55;1.83;;;;;;;;;;5009181;28;20241;-87
2022/02/21 01:23:46;;;;;;;11.07;2.78;;;;;;;;;;5035675;28;20631;-84
2022/02/21 01:26:12;;;;;;;13.40;2.60;;;;;;;;;;5023097;28;20186;-85
2022/02/21 01:28:38;;;;;;;7.20;2.30;;;;;;;;;;5039384;28;20190;-87
2022/02/21 01:31:04;;;;;;;12.60;2.38;;;;;;;;;;5037018;28;20213;-87
2022/02/21 01:33:30;;;;;;;14.23;2.97;;;;;;;;;;5024475;28;20182;-86
2022/02/21 01:35:57;;;;;;;17.92;2.92;;;;;;;;;;5036790;28;20214;-86
2022/02/21 01:38:24;;;;;;;10.98;2.88;;;;;;;;;;5049829;28;20233;-88
2022/02/21 01:40:50;;;;;;;21.15;3.85;;;;;;;;;;5011265;28;20229;-87
2022/02/21 01:43:16;;;;;;;12.73;2.78;;;;;;;;;;5018271;28;20178;-87
2022/02/21 01:45:42;;;;;;;13.30;2.50;;;;;;;;;;5034676;28;20189;-86
2022/02/21 01:48:08;;;;;;;8.23;2.75;;;;;;;;;;5022841;28;20171;-88
2022/02/21 01:50:35;;;;;;;10.57;2.35;;;;;;;;;;5038454;28;20175;-86
2022/02/21 01:53:01;;;;;;;3.95;1.52;;;;;;;;;;5013156;28;20282;-87
2022/02/21 01:55:27;;;;;;;13.40;2.10;;;;;;;;;;5017826;28;20190;-84
2022/02/21 01:57:53;;;;;;;11.38;2.90;;;;;;;;;;5027134;28;20182;-81
2022/02/21 02:00:19;;;;;;;9.05;2.40;;;;;;;;;;5039314;28;20182;-86
2022/02/21 02:02:46;;;;;;;8.55;2.30;;;;;;;;;;5033727;28;20184;-88
2022/02/21 02:05:19;;;;;;;15.77;3.40;;;;;;;;;;5022438;28;20186;-88
2022/02/21 02:07:45;;;;;;;10.57;2.38;;;;;;;;;;5038782;28;20216;-87
2022/02/21 02:10:15;;;;;;;11.68;4.82;;;;;;;;;;5020356;28;20612;-88
2022/02/21 02:12:41;;;;;;;15.38;3.15;;;;;;;;;;5027718;28;20210;-85
2022/02/21 02:15:15;;;;;;;13.07;3.35;;;;;;;;;;5022371;28;20176;-88
2022/02/21 02:17:41;;;;;;;11.30;3.22;;;;;;;;;;5032050;28;20247;-87
2022/02/21 02:20:08;;;;;;;14.27;3.53;;;;;;;;;;5022622;28;20236;-87
2022/02/21 02:22:34;;;;;;;17.83;4.45;;;;;;;;;;5043547;28;20227;-88
2022/02/21 02:25:00;;;;;;;16.15;3.58;;;;;;;;;;5029967;28;20182;-86
2022/02/21 02:27:26;;;;;;;10.52;3.20;;;;;;;;;;5040041;28;20213;-88
2022/02/21 02:29:53;;;;;;;15.30;3.90;;;;;;;;;;5023194;28;20186;-88
2022/02/21 02:32:21;;;;;;;11.05;3.85;;;;;;;;;;5039878;28;20203;-88
2022/02/21 02:34:47;;;;;;;18.42;4.30;;;;;;;;;;5022900;28;20193;-88
2022/02/21 02:37:14;;;;;;;9.43;3.58;;;;;;;;;;5035363;28;20183;-87
2022/02/21 02:39:40;;;;;;;15.43;4.30;;;;;;;;;;5013776;28;20305;-85
2022/02/21 02:42:07;;;;;;;18.35;4.55;;;;;;;;;;5022252;28;20277;-86
2022/02/21 02:44:33;;;;;;;13.75;2.92;;;;;;;;;;5038178;28;20182;-89
2022/02/21 02:46:59;;;;;;;12.05;3.80;;;;;;;;;;5024498;28;20220;-88
2022/02/21 02:49:25;;;;;;;17.33;4.25;;;;;;;;;;5025560;28;20214;-87
2022/02/21 02:51:51;;;;;;;16.33;4.03;;;;;;;;;;5025004;28;20214;-88
2022/02/21 02:54:17;;;;;;;13.65;3.75;;;;;;;;;;5021743;28;20272;-86
2022/02/21 02:56:46;;;;;;;14.30;4.18;;;;;;;;;;5024119;28;20175;-85
2022/02/21 02:59:12;;;;;;;19.63;3.22;;;;;;;;;;5022012;28;20206;-89
2022/02/21 03:01:39;;;;;;;9.60;3.30;;;;;;;;;;5032086;28;20199;-88
2022/02/21 03:04:06;;;;;;;9.50;3.97;;;;;;;;;;5035032;28;20220;-85
2022/02/21 03:06:32;;;;;;;11.48;3.92;;;;;;;;;;5023741;28;20253;-87
2022/02/21 03:08:58;;;;;;;13.25;5.30;;;;;;;;;;5053754;28;20214;-86
2022/02/21 03:11:24;;;;;;;11.73;3.20;;;;;;;;;;5043291;28;20211;-91
2022/02/21 03:13:50;;;;;;;17.50;3.42;;;;;;;;;;5007643;28;20934;-89
2022/02/21 03:16:19;;;;;;;19.92;3.70;;;;;;;;;;5025790;28;20187;-87
2022/02/21 03:18:46;;;;;;;12.57;3.03;;;;;;;;;;5030033;28;20187;-89
2022/02/21 03:21:12;;;;;;;21.05;4.07;;;;;;;;;;5037035;28;20194;-86
2022/02/21 03:23:38;;;;;;;14.05;3.92;;;;;;;;;;5051624;28;20225;-85
2022/02/21 03:26:03;;;;;;;12.23;3.42;;;;;;;;;;5047527;28;20183;-86
2022/02/21 03:28:29;;;;;;;13.18;2.80;;;;;;;;;;5016044;28;20269;-91
2022/02/21 03:30:56;;;;;;;15.47;4.20;;;;;;;;;;5030537;28;20860;-93
2022/02/21 03:33:22;;;;;;;16.58;4.00;;;;;;;;;;5030739;28;20504;-89
2022/02/21 03:35:49;;;;;;;13.77;3.88;;;;;;;;;;5028911;28;20171;-88
2022/02/21 03:38:15;;;;;;;16.27;3.92;;;;;;;;;;5026107;28;20219;-92
2022/02/21 03:40:42;;;;;;;9.48;3.15;;;;;;;;;;5030318;28;20191;-88
2022/02/21 03:43:08;;;;;;;13.07;4.15;;;;;;;;;;5047382;28;20179;-90
2022/02/21 03:45:34;;;;;;;12.55;3.30;;;;;;;;;;5025229;28;20217;-89
2022/02/21 03:48:00;;;;;;;11.70;4.50;;;;;;;;;;5039000;28;20177;-90
2022/02/21 03:50:26;;;;;;;15.50;3.90;;;;;;;;;;5045933;28;20676;-88
2022/02/21 03:52:52;;;;;;;13.75;2.50;;;;;;;;;;5025638;28;20225;-89
2022/02/21 03:55:19;;;;;;;12.45;3.65;;;;;;;;;;5014996;28;20213;-88
2022/02/21 03:57:45;;;;;;;8.77;3.13;;;;;;;;;;5019931;28;20188;-87
2022/02/21 04:00:15;;;;;;;11.40;3.58;;;;;;;;;;5025456;28;20201;-86
2022/02/21 04:02:41;;;;;;;12.95;3.28;;;;;;;;;;5039858;28;20217;-87
2022/02/21 04:05:08;;;;;;;16.77;3.05;;;;;;;;;;5024368;28;20617;-86
2022/02/21 04:07:34;;;;;;;8.57;2.38;;;;;;;;;;5034623;28;20183;-84
2022/02/21 04:10:00;;;;;;;8.13;2.80;;;;;;;;;;5029685;28;20310;-85
2022/02/21 04:12:26;;;;;;;7.93;2.35;;;;;;;;;;5030072;28;20213;-87
2022/02/21 04:14:52;;;;;;;9.40;3.60;;;;;;;;;;5034897;28;20197;-88
2022/02/21 04:17:19;;;;;;;14.18;3.03;;;;;;;;;;5028947;28;20191;-91
2022/02/21 04:19:48;;;;;;;13.05;2.75;;;;;;;;;;5036514;28;20183;-89
2022/02/21 04:22:14;;;;;;;11.15;2.50;;;;;;;;;;5023199;28;20268;-91
2022/02/21 04:24:40;;;;;;;15.70;3.75;;;;;;;;;;5053298;28;20197;-87
2022/02/21 04:27:06;;;;;;;14.68;2.90;;;;;;;;;;5019007;28;20184;-92
2022/02/21 04:29:33;;;;;;;9.82;3.35;;;;;;;;;;5028258;28;20183;-87
2022/02/21 04:31:59;;;;;;;11.93;2.35;;;;;;;;;;5043093;28;20201;-87
2022/02/21 04:34:25;;;;;;;12.77;3.33;;;;;;;;;;5026971;28;20290;-88
2022/02/21 04:36:51;;;;;;;7.75;2.45;;;;;;;;;;5010096;28;20175;-87
2022/02/21 04:39:17;;;;;;;13.77;3.08;;;;;;;;;;5025798;28;20280;-88
2022/02/21 04:41:43;;;;;;;10.27;2.78;;;;;;;;;;5035598;28;20177;-85
2022/02/21 04:44:09;;;;;;;10.27;2.95;;;;;;;;;;5024766;28;20198;-86
2022/02/21 04:46:35;;;;;;;13.35;3.08;;;;;;;;;;5021107;28;20244;-88
2022/02/21 04:49:01;;;;;;;6.68;2.95;;;;;;;;;;5021959;28;20179;-87
2022/02/21 04:51:27;;;;;;;9.10;2.75;;;;;;;;;;5024652;28;20206;-88
2022/02/21 04:53:53;;;;;;;9.65;2.53;;;;;;;;;;5024408;28;20283;-87
2022/02/21 04:56:19;;;;;;;4.33;2.10;;;;;;;;;;5013913;28;20179;-87
2022/02/21 04:58:45;;;;;;;16.02;2.92;;;;;;;;;;5032434;28;20469;-87
2022/02/21 05:01:11;;;;;;;9.05;2.42;;;;;;;;;;5028589;28;20186;-87
2022/02/21 05:03:37;;;;;;;4.97;1.88;;;;;;;;;;5043022;28;20183;-85
2022/02/21 05:06:03;;;;;;;5.63;1.95;;;;;;;;;;5023877;28;20171;-84
2022/02/21 05:08:30;;;;;;;5.50;2.08;;;;;;;;;;5020933;28;20209;-89
2022/02/21 05:10:57;;;;;;;8.07;2.15;;;;;;;;;;5023364;28;20214;-88
2022/02/21 05:13:23;;;;;;;7.97;1.67;;;;;;;;;;5020038;28;20182;-86
2022/02/21 05:15:49;;;;;;;11.85;2.42;;;;;;;;;;5029040;28;20183;-91
2022/02/21 05:18:15;;;;;;;9.02;2.15;;;;;;;;;;5023950;28;20269;-86
2022/02/21 05:20:41;;;;;;;7.05;2.20;;;;;;;;;;5026484;28;20214;-88
2022/02/21 05:23:07;;;;;;;6.53;2.13;;;;;;;;;;5023909;28;20197;-86
2022/02/21 05:25:33;;;;;;;4.22;2.05;;;;;;;;;;5033742;28;20179;-88
2022/02/21 05:27:59;;;;;;;7.93;2.00;;;;;;;;;;5037518;28;20186;-89
2022/02/21 05:30:25;;;;;;;8.02;1.98;;;;;;;;;;5024196;28;20183;-91
2022/02/21 05:32:51;;;;;;;11.88;2.38;;;;;;;;;;5053303;28;20217;-90
2022/02/21 05:35:17;;;;;;;6.55;1.85;;;;;;;;;;5045539;28;20175;-88
2022/02/21 05:37:43;;;;;;;9.25;1.70;;;;;;;;;;5024490;28;20191;-86
2022/02/21 05:40:09;;;;;;;4.65;2.08;;;;;;;;;;5028020;28;20186;-86
2022/02/21 05:42:35;;;;;;;3.75;1.45;;;;;;;;;;5038897;28;20261;-87
2022/02/21 05:45:01;;;;;;;6.15;2.42;;;;;;;;;;5023498;28;20179;-87
2022/02/21 05:47:27;;;;;;;5.95;1.85;;;;;;;;;;5032766;28;20186;-87
2022/02/21 05:49:54;;;;;;;10.07;1.90;;;;;;;;;;5026038;28;20186;-91
2022/02/21 05:52:20;;;;;;;3.00;1.65;;;;;;;;;;5035501;28;20279;-84
2022/02/21 05:54:46;;;;;;;3.53;1.20;;;;;;;;;;5026929;28;20194;-85
2022/02/21 05:57:12;;;;;;;6.78;1.75;;;;;;;;;;5027107;28;20237;-84
2022/02/21 05:59:38;;;;;;;10.88;1.90;;;;;;;;;;5038207;28;20182;-85
2022/02/21 06:02:04;;;;;;;5.35;1.17;;;;;;;;;;5027101;28;20337;-87
2022/02/21 06:04:30;;;;;;;4.82;1.52;;;;;;;;;;5027442;28;20187;-86
2022/02/21 06:06:56;;;;;;;4.65;1.30;;;;;;;;;;5036179;28;20192;-90
2022/02/21 06:09:22;;;;;;;1.73;1.10;;;;;;;;;;5008896;28;20190;-84
2022/02/21 06:11:48;;;;;;;3.60;1.50;;;;;;;;;;5024635;28;20209;-89
2022/02/21 06:14:14;;;;;;;6.03;1.42;;;;;;;;;;5027520;28;20182;-91
2022/02/21 06:16:41;;;;;;;7.30;1.70;;;;;;;;;;5027067;28;20219;-89
2022/02/21 06:19:07;;;;;;;6.90;1.05;;;;;;;;;;5012894;28;20178;-89
2022/02/21 06:21:33;;;;;;;5.82;1.55;;;;;;;;;;5027674;28;20195;-86
2022/02/21 06:23:59;;;;;;;10.77;1.80;;;;;;;;;;5052416;28;20178;-87
2022/02/21 06:26:26;;;;;;;4.75;1.33;;;;;;;;;;5025900;28;20186;-87
2022/02/21 06:28:51;;;;;;;4.00;0.93;;;;;;;;;;5033732;28;20550;-85
2022/02/21 06:31:18;;;;;;;6.32;1.45;;;;;;;;;;5025649;28;20202;-84
2022/02/21 06:33:43;;;;;;;8.20;1.35;;;;;;;;;;5025072;28;20178;-86
2022/02/21 06:36:09;;;;;;;1.90;1.10;;;;;;;;;;5021387;28;20202;-85
2022/02/21 06:38:37;;;;;;;3.25;1.25;;;;;;;;;;5024763;28;20241;-87
2022/02/21 06:41:03;;;;;;;6.13;1.33;;;;;;;;;;5022547;28;20197;-88
2022/02/21 06:43:29;;;;;;;10.15;1.35;;;;;;;;;;5026557;28;20186;-83
2022/02/21 06:45:55;;;;;;;4.68;1.25;;;;;;;;;;5022754;28;20198;-87
2022/02/21 06:48:22;;;;;;;5.63;1.03;;;;;;;;;;5035249;28;20189;-87
2022/02/21 06:50:48;;;;;;;5.75;1.35;;;;;;;;;;5010593;28;20464;-86
2022/02/21 06:53:14;;;;;;;5.68;1.45;;;;;;;;;;5022475;28;20242;-86
2022/02/21 06:55:40;;;;;;;2.63;1.33;;;;;;;;;;5027412;28;20176;-84
2022/02/21 06:58:06;;;;;;;5.30;1.63;;;;;;;;;;5030955;28;20186;-82
2022/02/21 07:00:32;;;;;;;6.70;1.77;;;;;;;;;;5027781;28;20182;-84
2022/02/21 07:02:58;;;;;;;6.60;1.70;;;;;;;;;;5043052;28;20185;-86
2022/02/21 07:05:24;;;;;;;7.55;2.70;;;;;;;;;;5027039;28;20240;-85
2022/02/21 07:07:50;;;;;;;7.43;1.80;;;;;;;;;;5033798;28;20217;-83
2022/02/21 07:10:16;;;;;;;7.50;1.57;;;;;;;;;;5019042;28;20183;-87
2022/02/21 07:12:42;;;;;;;9.02;2.05;;;;;;;;;;5028516;28;20464;-88
2022/02/21 07:15:08;;;;;;;14.07;1.57;;;;;;;;;;5029499;28;20173;-87
2022/02/21 07:17:39;;;;;;;5.65;1.52;;;;;;;;;;5037633;28;20511;-86
2022/02/21 07:20:05;;;;;;;3.60;1.40;;;;;;;;;;5051676;28;20294;-85
2022/02/21 07:22:31;;;;;;;2.75;1.33;;;;;;;;;;5039996;28;20253;-86
2022/02/21 07:24:57;;;;;;;6.07;2.03;;;;;;;;;;5021284;28;20190;-86
2022/02/21 07:27:23;;;;;;;13.70;2.45;;;;;;;;;;5054858;28;20224;-84
2022/02/21 07:29:49;;;;;;;7.88;2.47;;;;;;;;;;5023295;28;20185;-94
2022/02/21 07:32:15;;;;;;;5.93;1.50;;;;;;;;;;5022626;28;20237;-88
2022/02/21 07:34:41;;;;;;;8.85;2.60;;;;;;;;;;5039484;28;20194;-87
2022/02/21 07:37:07;;;;;;;16.17;3.03;;;;;;;;;;5035050;28;20208;-87
2022/02/21 07:39:33;;;;;;;5.72;1.88;;;;;;;;;;5038751;28;20240;-85
2022/02/21 07:41:59;;;;;;;7.82;2.00;;;;;;;;;;5026261;28;20187;-85
2022/02/21 07:44:26;;;;;;;9.25;2.08;;;;;;;;;;5018711;28;20670;-84
2022/02/21 07:46:52;;;;;;;9.35;2.35;;;;;;;;;;5036270;28;20218;-83
2022/02/21 07:49:18;;;;;;;5.03;1.98;;;;;;;;;;5033762;28;20186;-89
2022/02/21 07:51:44;;;;;;;7.68;2.75;;;;;;;;;;5035893;28;20235;-85
2022/02/21 07:54:10;;;;;;;6.97;3.10;;;;;;;;;;5039761;28;20263;-83
2022/02/21 07:56:36;;;;;;;10.07;2.70;;;;;;;;;;5054591;28;20178;-83
2022/02/21 07:59:03;;;;;;;6.50;1.95;;;;;;;;;;5030957;28;20183;-84
2022/02/21 08:01:29;;;;;;;10.65;2.30;;;;;;;;;;5021448;28;20187;-88
2022/02/21 08:03:55;;;;;;;10.95;2.70;;;;;;;;;;5017336;28;20245;-88
2022/02/21 08:06:21;;;;;;;10.52;4.80;;;;;;;;;;5040262;28;20197;-82
2022/02/21 08:08:47;;;;;;;8.48;2.90;;;;;;;;;;5025825;28;20262;-85
2022/02/21 08:11:13;;;;;;;15.98;3.65;;;;;;;;;;5046718;28;20207;-85
2022/02/21 08:13:39;;;;;;;7.88;2.80;;;;;;;;;;5015104;28;20183;-85
2022/02/21 08:16:05;;;;;;;5.88;1.77;;;;;;;;;;5039332;28;20186;-87
2022/02/21 08:18:33;;;;;;;5.05;2.22;;;;;;;;;;5039700;28;20175;-89
2022/02/21 08:20:59;;;;;;;11.05;3.20;;;;;;;;;;5027171;28;20176;-85
2022/02/21 08:23:25;;;;;;;5.15;2.75;;;;;;;;;;5059233;28;20174;-85
2022/02/21 08:25:51;;;;;;;10.27;1.90;;;;;;;;;;5017205;28;20493;-86
2022/02/21 08:28:17;;;;;;;8.25;2.45;;;;;;;;;;5013754;28;20448;-85
2022/02/21 08:30:43;;;;;;;7.90;2.83;;;;;;;;;;5037229;28;20182;-86
2022/02/21 08:33:09;;;;;;;12.45;3.85;;;;;;;;;;5066948;28;20209;-89
2022/02/21 08:35:35;;;;;;;9.80;3.53;;;;;;;;;;5007952;28;20189;-85
2022/02/21 08:38:02;;;;;;;13.57;3.42;;;;;;;;;;5022321;28;20496;-84
2022/02/21 08:40:28;;;;;;;14.38;2.55;;;;;;;;;;5041710;28;20183;-87
2022/02/21 08:42:54;;;;;;;13.70;3.22;;;;;;;;;;5024322;28;20194;-84
2022/02/21 08:45:20;;;;;;;7.63;2.72;;;;;;;;;;5038703;28;20248;-85
2022/02/21 08:47:46;;;;;;;8.82;3.38;;;;;;;;;;5053742;28;20273;-86
2022/02/21 08:50:12;;;;;;;7.75;2.05;;;;;;;;;;5013700;28;20214;-83
2022/02/21 08:52:42;;;;;;;9.10;2.28;;;;;;;;;;5030095;28;20210;-88
2022/02/21 08:55:09;;;;;;;13.70;3.22;;;;;;;;;;5029495;28;20256;-88
2022/02/21 08:57:36;;;;;;;8.82;2.65;;;;;;;;;;5024825;28;20198;-86
2022/02/21 09:00:03;;;;;;;6.97;2.72;;;;;;;;;;5023163;28;20175;-84
2022/02/21 09:02:29;;;;;;;7.93;2.45;;;;;;;;;;5058017;28;20190;-85
2022/02/21 09:04:55;;;;;;;14.17;2.67;;;;;;;;;;5019404;28;20201;-85
2022/02/21 09:07:21;;;;;;;11.93;3.40;;;;;;;;;;5019553;28;20860;-86
2022/02/21 09:09:47;;;;;;;8.20;3.25;;;;;;;;;;5012292;28;20448;-87
2022/02/21 09:12:13;;;;;;;14.60;3.05;;;;;;;;;;5022893;28;20202;-84
2022/02/21 09:14:40;;;;;;;9.57;2.92;;;;;;;;;;5025705;28;20179;-91
2022/02/21 09:17:06;;;;;;;21.30;2.78;;;;;;;;;;5041285;28;20187;-88
2022/02/21 09:19:32;;;;;;;9.13;2.92;;;;;;;;;;5050096;28;20187;-91
2022/02/21 09:21:58;;;;;;;12.05;2.25;;;;;;;;;;5037870;28;20252;-86
2022/02/21 09:24:24;;;;;;;10.30;3.35;;;;;;;;;;5009406;28;20307;-86
2022/02/21 09:26:50;;;;;;;8.93;2.10;;;;;;;;;;5009212;28;20186;-86
2022/02/21 09:29:16;;;;;;;9.87;2.77;;;;;;;;;;5023895;28;20646;-85
2022/02/21 09:31:42;;;;;;;9.43;2.53;;;;;;;;;;5028098;28;20466;-87
2022/02/21 09:34:08;;;;;;;10.00;2.75;;;;;;;;;;5017676;28;20464;-86
2022/02/21 09:36:35;;;;;;;11.30;2.60;;;;;;;;;;5036594;28;20183;-86
2022/02/21 09:39:02;;;;;;;9.70;2.95;;;;;;;;;;5023179;28;20210;-87
2022/02/21 09:41:28;;;;;;;9.18;3.38;;;;;;;;;;5024005;28;20178;-86
2022/02/21 09:43:53;;;;;;;16.92;3.17;;;;;;;;;;5018559;28;20225;-85
2022/02/21 09:46:21;;;;;;;9.53;3.00;;;;;;;;;;5026537;28;20218;-86
2022/02/21 09:48:47;;;;;;;9.85;3.47;;;;;;;;;;5045029;28;20422;-86
2022/02/21 09:51:13;;;;;;;20.58;3.42;;;;;;;;;;5040817;28;20221;-84
2022/02/21 09:53:42;;;;;;;6.78;2.30;;;;;;;;;;5021358;28;20236;-87
2022/02/21 09:56:08;;;;;;;8.15;2.42;;;;;;;;;;5021818;28;20183;-89
2022/02/21 09:58:34;;;;;;;6.85;2.20;;;;;;;;;;5023693;28;20183;-88
2022/02/21 10:01:00;;;;;;;14.85;3.75;;;;;;;;;;5050790;28;20209;-88
2022/02/21 10:03:45;;;;;;;5.32;2.28;;;;;;;;;;5029489;28;20209;-84
2022/02/21 10:06:14;;;;;;;9.38;2.22;;;;;;;;;;5051084;28;20208;-90
2022/02/21 10:08:57;;;;;;;8.63;2.63;;;;;;;;;;5047352;28;20179;-87
2022/02/21 10:11:23;;;;;;;5.40;2.03;;;;;;;;;;5045269;28;20225;-89
2022/02/21 10:13:53;;;;;;;11.48;3.10;;;;;;;;;;5032299;28;20553;-88
2022/02/21 10:16:19;;;;;;;9.43;2.15;;;;;;;;;;5017415;28;20187;-85
2022/02/21 10:18:46;;;;;;;6.32;2.45;;;;;;;;;;5033837;28;20490;-90
2022/02/21 10:21:12;;;;;;;9.30;2.15;;;;;;;;;;5007218;28;20194;-91
2022/02/21 10:23:42;;;;;;;9.82;2.75;;;;;;;;;;5062403;28;20687;-84
2022/02/21 10:26:11;;;;;;;5.53;2.33;;;;;;;;;;5013358;28;20214;-86
2022/02/21 10:28:39;;;;;;;13.15;3.25;;;;;;;;;;5028101;28;20175;-88
2022/02/21 10:31:11;;;;;;;16.38;4.75;;;;;;;;;;5016855;28;20191;-86
2022/02/21 10:33:37;;;;;;;12.45;3.63;;;;;;;;;;5022520;28;20225;-86
2022/02/21 10:36:06;;;;;;;11.52;2.90;;;;;;;;;;5016373;28;20175;-88
2022/02/21 10:38:41;;;;;;;15.57;4.00;;;;;;;;;;5039681;28;20242;-85
2022/02/21 10:41:13;;;;;;;6.13;3.03;;;;;;;;;;5044724;28;20330;-90
2022/02/21 10:43:39;;;;;;;7.97;3.05;;;;;;;;;;5033693;28;20194;-86
2022/02/21 10:46:12;;;;;;;6.55;2.97;;;;;;;;;;5028253;28;20229;-85
2022/02/21 10:48:46;;;;;;;11.43;3.28;;;;;;;;;;5051026;28;20228;-87
2022/02/21 10:51:12;;;;;;;9.43;3.10;;;;;;;;;;5035238;28;20214;-89
2022/02/21 10:53:47;;;;;;;7.47;2.50;;;;;;;;;;5021297;28;20572;-85
2022/02/21 10:56:16;;;;;;;9.77;3.40;;;;;;;;;;5034649;28;20181;-86
2022/02/21 10:58:41;;;;;;;17.83;4.20;;;;;;;;;;5032096;28;20182;-89
2022/02/21 11:01:10;;;;;;;12.20;2.87;;;;;;;;;;5030367;28;20197;-88
2022/02/21 11:03:36;;;;;;;11.40;3.50;;;;;;;;;;5054197;28;20441;-83
2022/02/21 11:06:04;;;;;;;9.30;3.40;;;;;;;;;;5021552;28;20171;-85
2022/02/21 11:08:31;;;;;;;15.85;3.47;;;;;;;;;;5048199;28;20178;-84
2022/02/21 11:11:01;;;;;;;8.93;2.83;;;;;;;;;;5032982;28;20180;-87
2022/02/21 11:13:30;;;;;;;10.65;3.53;;;;;;;;;;5028742;28;20195;-85
2022/02/21 11:15:56;;;;;;;8.10;2.75;;;;;;;;;;5025190;28;20187;-86
2022/02/21 11:18:23;;;;;;;15.57;3.78;;;;;;;;;;5022688;28;20178;-88
2022/02/21 11:20:50;;;;;;;8.88;3.25;;;;;;;;;;5008152;28;20195;-89
2022/02/21 11:23:16;;;;;;;11.77;4.13;;;;;;;;;;5026540;28;20182;-83
2022/02/21 11:25:49;;;;;;;9.50;3.03;;;;;;;;;;5030661;28;20177;-86
2022/02/21 11:28:21;;;;;;;14.93;4.28;;;;;;;;;;5016167;28;20430;-86
2022/02/21 11:30:49;;;;;;;14.82;3.67;;;;;;;;;;5043171;28;20182;-86
2022/02/21 11:33:15;;;;;;;10.88;4.45;;;;;;;;;;5058826;28;20199;-83
2022/02/21 11:36:00;;;;;;;10.88;3.75;;;;;;;;;;5024593;28;20179;-83
2022/02/21 11:38:28;;;;;;;18.85;4.60;;;;;;;;;;5038252;28;20219;-89
2022/02/21 11:41:02;;;;;;;14.00;4.75;;;;;;;;;;5026370;28;20614;-87
2022/02/21 11:43:47;;;;;;;15.70;4.43;;;;;;;;;;5025297;28;20190;-82
2022/02/21 11:46:13;;;;;;;11.25;3.83;;;;;;;;;;5019374;28;20232;-89
2022/02/21 11:48:59;;;;;;;9.02;3.15;;;;;;;;;;5032814;28;20718;-88
2022/02/21 11:51:24;;;;;;;13.77;4.47;;;;;;;;;;5010966;28;20206;-91
2022/02/21 11:53:50;;;;;;;10.83;3.50;;;;;;;;;;5025888;28;20179;-84
2022/02/21 11:56:16;;;;;;;15.05;4.90;;;;;;;;;;5043877;28;20445;-88
2022/02/21 11:58:45;;;;;;;16.80;3.35;;;;;;;;;;5018920;28;20203;-87
2022/02/21 12:01:12;;;;;;;14.57;4.82;;;;;;;;;;5028102;28;20190;-88
2022/02/21 12:03:38;;;;;;;7.30;3.70;;;;;;;;;;5009912;28;20273;-87
2022/02/21 12:06:04;;;;;;;15.75;3.42;;;;;;;;;;5049750;28;20186;-89
2022/02/21 12:08:30;;;;;;;10.02;3.00;;;;;;;;;;5043332;28;20203;-88
2022/02/21 12:11:02;;;;;;;14.97;4.70;;;;;;;;;;5031495;28;20183;-88
2022/02/21 12:13:29;;;;;;;6.32;3.30;;;;;;;;;;5023053;28;20468;-83
2022/02/21 12:16:02;;;;;;;16.70;4.47;;;;;;;;;;5035452;28;20183;-86
2022/02/21 12:18:29;;;;;;;11.48;5.10;;;;;;;;;;5019625;28;20174;-87
2022/02/21 12:21:14;;;;;;;16.52;4.57;;;;;;;;;;5041446;28;20178;-89
2022/02/21 12:23:56;;;;;;;16.33;4.20;;;;;;;;;;5041686;28;20523;-88
2022/02/21 12:26:35;;;;;;;21.67;5.50;;;;;;;;;;5040619;28;20178;-90
2022/02/21 12:29:11;;;;;;;18.40;4.90;;;;;;;;;;5037244;28;20639;-88
2022/02/21 12:31:39;;;;;;;17.63;4.30;;;;;;;;;;5039098;28;20213;-88
2022/02/21 12:34:05;;;;;;;13.88;4.18;;;;;;;;;;5023333;28;20182;-88
2022/02/21 12:36:35;;;;;;;14.68;4.68;;;;;;;;;;5046788;28;20213;-87
2022/02/21 12:39:01;;;;;;;14.57;4.68;;;;;;;;;;5024435;28;20219;-88
2022/02/21 12:41:35;;;;;;;12.25;4.53;;;;;;;;;;5048390;28;20289;-88
2022/02/21 12:44:05;;;;;;;22.42;4.85;;;;;;;;;;5023559;28;20213;-84
2022/02/21 12:46:37;;;;;;;30.60;5.68;;;;;;;;;;5025042;28;20188;-89
2022/02/21 12:49:04;;;;;;;19.08;3.65;;;;;;;;;;5044791;28;20194;-90
2022/02/21 12:51:34;;;;;;;16.48;4.82;;;;;;;;;;5037702;28;20205;-91
2022/02/21 12:54:00;;;;;;;20.02;5.15;;;;;;;;;;5032850;28;20182;-90
2022/02/21 12:56:27;;;;;;;14.75;4.43;;;;;;;;;;5008977;28;20179;-89
2022/02/21 12:58:54;;;;;;;18.83;4.10;;;;;;;;;;5033655;28;20182;-92
2022/02/21 13:01:21;;;;;;;15.35;4.63;;;;;;;;;;5026671;28;20254;-89
2022/02/21 13:03:53;;;;;;;13.23;4.60;;;;;;;;;;5036566;28;20206;-89
2022/02/21 13:06:19;;;;;;;24.08;4.68;;;;;;;;;;5046664;28;20206;-89
2022/02/21 13:08:45;;;;;;;16.83;3.70;;;;;;;;;;5052682;28;20345;-87
2022/02/21 13:11:11;;;;;;;19.35;4.85;;;;;;;;;;5028389;28;20201;-91
2022/02/21 13:13:46;;;;;;;10.63;3.93;;;;;;;;;;5028747;28;20188;-88
2022/02/21 13:16:12;;;;;;;21.63;5.35;;;;;;;;;;5008490;28;20442;-89
2022/02/21 13:18:56;;;;;;;15.48;4.43;;;;;;;;;;5021077;28;20258;-92
2022/02/21 13:21:29;;;;;;;16.45;3.92;;;;;;;;;;5011094;28;20188;-89
2022/02/21 13:23:55;;;;;;;19.05;5.30;;;;;;;;;;5046779;28;20199;-89
2022/02/21 13:26:23;;;;;;;20.23;6.00;;;;;;;;;;5028747;28;20179;-90
2022/02/21 13:28:49;;;;;;;22.23;4.50;;;;;;;;;;5019370;28;20190;-87
2022/02/21 13:31:18;;;;;;;18.20;5.50;;;;;;;;;;5023060;28;20187;-90
2022/02/21 13:33:46;;;;;;;17.38;4.65;;;;;;;;;;5023844;28;20261;-89
2022/02/21 13:36:12;;;;;;;23.42;4.70;;;;;;;;;;5041190;28;20282;-92
2022/02/21 13:38:38;;;;;;;17.30;4.57;;;;;;;;;;5031348;28;20222;-85
2022/02/21 13:41:04;;;;;;;20.35;5.40;;;;;;;;;;5020768;28;20199;-90
2022/02/21 13:43:30;;;;;;;19.63;5.30;;;;;;;;;;5044364;28;20199;-86
2022/02/21 13:45:56;;;;;;;15.48;4.78;;;;;;;;;;5007967;28;20194;-88
2022/02/21 13:48:26;;;;;;;13.13;3.97;;;;;;;;;;5021598;28;20179;-86
2022/02/21 13:51:00;;;;;;;11.75;3.45;;;;;;;;;;5006558;28;20660;-90
2022/02/21 13:53:37;;;;;;;24.45;5.53;;;;;;;;;;5022961;28;20217;-88
2022/02/21 13:56:05;;;;;;;17.27;5.32;;;;;;;;;;5064532;28;20249;-91
2022/02/21 13:58:34;;;;;;;14.23;5.25;;;;;;;;;;5024129;28;20186;-87
2022/02/21 14:01:08;;;;;;;17.08;4.85;;;;;;;;;;5019142;28;20265;-86
2022/02/21 14:03:38;;;;;;;15.25;4.47;;;;;;;;;;5024537;28;20185;-91
2022/02/21 14:06:06;;;;;;;33.97;6.22;;;;;;;;;;5037562;28;20198;-90
2022/02/21 14:08:47;;;;;;;23.98;5.95;;;;;;;;;;5023109;28;20182;-87
2022/02/21 14:11:15;;;;;;;17.05;4.40;;;;;;;;;;5022527;28;20258;-87
2022/02/21 14:13:41;;;;;;;19.10;5.72;;;;;;;;;;5031793;28;20193;-89
2022/02/21 14:16:08;;;;;;;19.92;5.57;;;;;;;;;;5026308;28;20238;-90
2022/02/21 14:18:34;;;;;;;21.98;4.97;;;;;;;;;;5024775;28;20175;-89
2022/02/21 14:21:01;;;;;;;16.95;4.68;;;;;;;;;;5042478;28;20208;-86
2022/02/21 14:23:27;;;;;;;20.05;5.43;;;;;;;;;;5052126;28;20265;-92
2022/02/21 14:25:53;;;;;;;36.35;6.13;;;;;;;;;;5030822;28;20194;-92
2022/02/21 14:28:19;;;;;;;13.77;4.47;;;;;;;;;;5012117;28;20179;-89
2022/02/21 14:30:45;;;;;;;19.27;4.35;;;;;;;;;;5039167;28;20238;-89
2022/02/21 14:33:13;;;;;;;24.10;4.70;;;;;;;;;;5021843;28;20232;-88
2022/02/21 14:35:39;;;;;;;12.50;4.60;;;;;;;;;;5010199;28;20174;-91